MET992 - Hong Kong to Jakarta

Airbus A330-243
787MT
4 hrs 15 mins
1762 nm
Scheduled - SU | M | W | F | SA

Bid/PiRep Status

Bid was submitted on Jan 01 2017.

PiRep # 74559: Approved by Dave Nichols on January 2nd, 2017 2:58 UTC

Departure

Departing from
Hong Kong (HKG)
Departure gate
Terminal 1
Scheduled Departure
GMT 0300
Local 1100
METAR VHHH 230000Z 33010KT 2200 BR FEW006 SCT018 17/16 Q1017 NOSIG
TAF TAF VHHH 222300Z 2300/2406 36010KT 3500 BR FEW006 SCT020 TX17/2306Z TX15/2406Z TN13/2323Z TEMPO 2300/2303 30010KT 1500 BR -RA BECMG 2309/2311 7000 NSW
  • No charts available

Arrival

Arriving at
Jakarta (CGK)
Arrival gate
Unassigned
Scheduled Arrival
GMT 0715
Local 1415
METAR WIII 230000Z 22005KT 6000 FEW022 25/24 Q1010 NOSIG
TAF TAF WIII 222300Z 2300/2406 VRB04KT 6000 FEW021 BECMG 2301/2303 33008KT 8000 NSW SCT020 TEMPO 2312/2315 4000 TSRA FEW018CB BKN020

Route Map

Planning Resources

EPDOS L642 VMR B469 BIDAK
PECA1A PECAN V12 EPDOS L642 CN L644 TPN AMBOY DEND1B
SANDI2C M771 DULOP M772 KIBON B592 DENDY
OCEA2 OCEAN V4 SKATE V5 SABNO A583 AKOTA M754 BRU R223 BUTAX P648 RAFIS DEND1B
VHHH CH DUMOL XOPUB UXUVI BOMPO AGUPO VSB ANIPU DENDI DKI WIII
Route:
OFP Layout:
Units:
Detailed Navlog:
ETOPS Planning:
Plan Stepclimbs:
Runway Analysis:
Include NOTAMS:
FIR NOTAMS:
Flight Maps:

Return Flights

MET993
Airbus A330-243
0900 GMT

Popularity

Hub Current Bids PiReps this month Total PiReps
KMCI 0 0 3
KLAX 0 0 4
KBOS 0 0 0